createdAt,value
2017-06-18T00:02:11.908Z,73.90
2017-06-18T00:04:40.208Z,74.10
2017-06-18T00:07:08.520Z,74.00
2017-06-18T00:09:36.812Z,73.50
2017-06-18T00:12:05.104Z,73.40
2017-06-18T00:14:33.412Z,73.40
2017-06-18T00:17:01.701Z,73.60
2017-06-18T00:19:30.012Z,73.60
2017-06-18T00:21:58.309Z,73.80
2017-06-18T00:24:26.624Z,73.70
2017-06-18T00:26:54.920Z,73.60
2017-06-18T00:29:23.239Z,73.60
2017-06-18T00:31:50.769Z,73.50
2017-06-18T00:34:19.069Z,73.80
2017-06-18T00:36:47.384Z,73.70
2017-06-18T00:39:15.669Z,73.70
2017-06-18T00:41:43.980Z,73.80
2017-06-18T00:44:12.280Z,73.80
2017-06-18T00:46:40.593Z,73.80
2017-06-18T00:49:08.885Z,74.00
2017-06-18T00:51:37.192Z,74.20
2017-06-18T00:54:05.484Z,74.50
2017-06-18T00:56:33.772Z,74.90
2017-06-18T00:59:02.088Z,74.80
2017-06-18T01:01:30.376Z,75.20
2017-06-18T01:03:57.924Z,75.10
2017-06-18T01:06:26.221Z,75.80
2017-06-18T01:08:54.532Z,75.60
2017-06-18T01:11:22.825Z,75.40
2017-06-18T01:13:51.140Z,75.40
2017-06-18T01:16:19.436Z,75.50
2017-06-18T01:18:47.725Z,75.50
2017-06-18T01:21:16.040Z,75.80
2017-06-18T01:23:44.328Z,76.20
2017-06-18T01:26:12.644Z,76.10
2017-06-18T01:28:40.939Z,76.80
2017-06-18T01:31:09.248Z,77.00
2017-06-18T01:33:37.544Z,77.20
2017-06-18T01:36:05.857Z,77.40
2017-06-18T01:38:34.144Z,77.70
2017-06-18T01:41:02.433Z,77.80
2017-06-18T01:43:30.752Z,78.00
2017-06-18T01:45:59.040Z,78.30
2017-06-18T01:48:27.356Z,78.60
2017-06-18T01:50:55.654Z,78.90
2017-06-18T01:53:23.989Z,78.70
2017-06-18T01:55:52.284Z,78.60
2017-06-18T01:58:19.812Z,78.60
2017-06-18T02:00:48.124Z,78.80
2017-06-18T02:03:16.416Z,79.10
2017-06-18T02:05:44.724Z,79.30
2017-06-18T02:08:12.255Z,79.30
2017-06-18T02:10:40.587Z,80.00
2017-06-18T02:13:08.880Z,80.30
2017-06-18T02:15:37.168Z,80.50
2017-06-18T02:18:05.476Z,80.80
2017-06-18T02:20:33.764Z,81.00
2017-06-18T02:23:02.070Z,81.10
2017-06-18T02:25:30.370Z,81.10
2017-06-18T02:27:58.688Z,81.40
2017-06-18T02:30:26.976Z,81.60
2017-06-18T02:32:55.308Z,81.50
2017-06-18T02:35:23.596Z,81.30
2017-06-18T02:37:51.884Z,81.40
2017-06-18T02:40:20.196Z,81.60
2017-06-18T02:42:48.489Z,81.80
2017-06-18T02:45:16.805Z,82.00
2017-06-18T02:47:45.092Z,81.70
2017-06-18T02:50:13.405Z,81.60
2017-06-18T02:52:41.700Z,81.50
2017-06-18T02:55:10.036Z,81.30
2017-06-18T02:57:38.331Z,81.70
2017-06-18T03:00:06.623Z,81.20
2017-06-18T03:02:34.939Z,81.00
2017-06-18T03:05:03.232Z,80.70
2017-06-18T03:07:31.549Z,80.70
2017-06-18T03:10:11.559Z,80.60
2017-06-18T03:12:39.889Z,80.50
2017-06-18T03:15:08.184Z,80.60
2017-06-18T03:17:36.501Z,80.40
2017-06-18T03:20:04.788Z,80.40
2017-06-18T03:22:33.101Z,80.50
2017-06-18T03:25:01.388Z,80.60
2017-06-18T03:27:29.725Z,80.40
2017-06-18T03:29:58.025Z,80.40
2017-06-18T03:32:26.321Z,80.60
2017-06-18T03:34:54.634Z,80.70
2017-06-18T03:37:22.925Z,80.50
2017-06-18T03:39:51.234Z,80.50
2017-06-18T03:42:19.520Z,80.50
2017-06-18T03:44:47.836Z,80.50
2017-06-18T03:47:16.132Z,80.20
2017-06-18T03:49:44.425Z,80.30
2017-06-18T03:52:12.748Z,80.30
2017-06-18T03:54:41.046Z,80.30
2017-06-18T03:57:09.361Z,80.10
2017-06-18T03:59:37.656Z,80.00
2017-06-18T04:02:05.971Z,79.80
2017-06-18T04:04:34.269Z,79.80
2017-06-18T04:07:02.592Z,79.60
2017-06-18T04:09:30.889Z,79.50
2017-06-18T04:11:59.210Z,79.40
2017-06-18T04:14:27.504Z,79.40
2017-06-18T04:16:55.817Z,79.30
2017-06-18T04:19:24.112Z,79.20
2017-06-18T04:21:52.435Z,79.10
2017-06-18T04:24:20.731Z,78.60
2017-06-18T04:26:49.021Z,78.10
2017-06-18T04:29:17.336Z,78.00
2017-06-18T04:31:45.621Z,77.70
2017-06-18T04:34:13.943Z,77.20
2017-06-18T04:36:42.233Z,76.90
2017-06-18T04:39:10.545Z,76.20
2017-06-18T04:41:38.840Z,74.40
2017-06-18T04:44:07.152Z,73.10
2017-06-18T04:46:35.445Z,72.50
2017-06-18T04:49:03.732Z,72.10
2017-06-18T04:51:32.041Z,71.80
2017-06-18T04:54:00.332Z,71.30
2017-06-18T04:56:28.641Z,70.40
2017-06-18T04:58:56.929Z,67.90
2017-06-18T05:01:25.236Z,65.40
2017-06-18T05:03:53.525Z,62.90
2017-06-18T05:06:21.833Z,61.20
2017-06-18T05:08:50.125Z,60.00
2017-06-18T05:11:18.440Z,59.10
2017-06-18T05:13:46.724Z,58.60
2017-06-18T05:16:15.018Z,58.30
2017-06-18T05:18:43.380Z,58.80
2017-06-18T05:21:11.664Z,59.50
2017-06-18T05:23:40.219Z,60.50
2017-06-18T05:26:08.511Z,61.40
2017-06-18T05:28:36.801Z,62.20
2017-06-18T05:31:05.109Z,62.60
2017-06-18T05:33:33.417Z,62.90
2017-06-18T05:36:01.748Z,63.00
2017-06-18T05:38:30.041Z,63.10
2017-06-18T05:40:58.359Z,63.30
2017-06-18T05:43:26.648Z,63.70
2017-06-18T05:45:54.980Z,63.80
2017-06-18T05:48:23.281Z,63.50
2017-06-18T05:50:51.581Z,63.60
2017-06-18T05:53:19.897Z,63.50
2017-06-18T05:55:48.180Z,63.40
2017-06-18T05:58:16.497Z,63.50
2017-06-18T06:00:44.793Z,63.10
2017-06-18T06:03:13.119Z,62.80
2017-06-18T06:05:41.427Z,62.60
2017-06-18T06:08:09.756Z,62.30
2017-06-18T06:10:38.068Z,62.10
2017-06-18T06:13:06.364Z,61.60
2017-06-18T06:15:34.677Z,63.20
2017-06-18T06:18:02.964Z,63.00
2017-06-18T06:20:31.276Z,63.20
2017-06-18T06:22:59.571Z,63.30
2017-06-18T06:25:27.893Z,63.10
2017-06-18T06:27:56.209Z,63.20
2017-06-18T06:30:24.512Z,62.80
2017-06-18T06:32:52.848Z,62.60
2017-06-18T06:35:21.152Z,62.30
2017-06-18T06:37:49.460Z,62.40
2017-06-18T06:40:17.788Z,62.20
2017-06-18T06:42:46.101Z,62.20
2017-06-18T06:45:14.399Z,62.00
2017-06-18T06:47:42.720Z,61.90
2017-06-18T06:50:11.023Z,62.00
2017-06-18T06:52:39.316Z,60.50
2017-06-18T06:55:07.640Z,59.60
2017-06-18T06:57:35.933Z,58.80
2017-06-18T07:00:04.244Z,58.20
2017-06-18T07:02:32.541Z,58.10
2017-06-18T07:05:00.865Z,57.80
2017-06-18T07:07:29.159Z,57.60
2017-06-18T07:09:57.493Z,57.00
2017-06-18T07:12:25.785Z,56.40
2017-06-18T07:14:54.077Z,56.30
2017-06-18T07:17:22.403Z,56.90
2017-06-18T07:19:50.700Z,56.20
2017-06-18T07:22:19.040Z,55.90
2017-06-18T07:24:47.329Z,56.30
2017-06-18T07:27:15.641Z,56.60
2017-06-18T07:29:43.941Z,56.80
2017-06-18T07:32:12.267Z,56.80
2017-06-18T07:34:40.560Z,56.50
2017-06-18T07:37:08.857Z,56.50
2017-06-18T07:39:37.172Z,56.40
2017-06-18T07:42:05.461Z,56.60
2017-06-18T07:44:33.773Z,56.80
2017-06-18T07:47:02.070Z,57.20
2017-06-18T07:49:30.382Z,57.90
2017-06-18T07:51:58.685Z,56.60
2017-06-18T07:54:27.001Z,55.90
2017-06-18T07:56:55.300Z,55.00
2017-06-18T07:59:23.588Z,54.00
2017-06-18T08:01:51.897Z,52.70
2017-06-18T08:04:19.432Z,52.70
2017-06-18T08:06:47.752Z,51.50
2017-06-18T08:09:16.084Z,51.00
2017-06-18T08:11:44.397Z,50.50
2017-06-18T08:14:12.696Z,49.80
2017-06-18T08:16:41.016Z,49.60
2017-06-18T08:19:09.315Z,50.30
2017-06-18T08:21:37.613Z,50.60
2017-06-18T08:24:05.926Z,50.40
2017-06-18T08:26:34.210Z,49.60
2017-06-18T08:29:02.512Z,49.60
2017-06-18T08:31:30.808Z,49.00
2017-06-18T08:33:59.121Z,48.60
2017-06-18T08:36:27.503Z,48.40
2017-06-18T08:38:55.816Z,47.80
2017-06-18T08:41:24.709Z,47.80
2017-06-18T08:43:52.989Z,48.00
2017-06-18T08:46:21.305Z,49.00
2017-06-18T08:48:49.604Z,49.20
2017-06-18T08:51:17.918Z,49.00
2017-06-18T08:53:46.249Z,49.70
2017-06-18T08:56:14.601Z,49.90
2017-06-18T08:58:42.886Z,49.60
2017-06-18T09:01:11.210Z,49.60
2017-06-18T09:03:39.500Z,49.70
2017-06-18T09:06:07.793Z,49.50
2017-06-18T09:08:36.101Z,49.60
2017-06-18T09:11:04.390Z,49.50
2017-06-18T09:13:32.704Z,49.20
2017-06-18T09:16:00.988Z,48.10
2017-06-18T09:18:29.301Z,47.70
2017-06-18T09:20:57.593Z,48.00
2017-06-18T09:23:25.884Z,48.00
2017-06-18T09:25:54.188Z,47.80
2017-06-18T09:28:22.472Z,47.30
2017-06-18T09:30:50.780Z,47.10
2017-06-18T09:33:19.077Z,47.20
2017-06-18T09:35:47.381Z,47.30
2017-06-18T09:38:15.681Z,46.00
2017-06-18T09:40:44.002Z,44.30
2017-06-18T09:43:12.307Z,44.30
2017-06-18T09:45:40.628Z,44.30
2017-06-18T09:48:08.952Z,44.40
2017-06-18T09:50:37.245Z,45.00
2017-06-18T09:53:05.548Z,44.80
2017-06-18T09:55:33.829Z,45.50
2017-06-18T09:58:02.137Z,45.70
2017-06-18T10:00:30.428Z,45.30
2017-06-18T10:02:58.744Z,44.20
2017-06-18T10:05:27.028Z,43.70
2017-06-18T10:07:55.321Z,43.80
2017-06-18T10:10:23.628Z,43.90
2017-06-18T10:12:51.912Z,44.10
2017-06-18T10:15:20.226Z,44.40
2017-06-18T10:17:48.518Z,44.10
2017-06-18T10:20:16.837Z,43.20
2017-06-18T10:22:45.133Z,42.30
2017-06-18T10:25:13.464Z,41.50
2017-06-18T10:27:41.768Z,40.80
2017-06-18T10:30:10.055Z,41.70
2017-06-18T10:32:38.380Z,42.00
2017-06-18T10:35:06.672Z,41.10
2017-06-18T10:37:34.980Z,40.10
2017-06-18T10:40:03.273Z,41.10
2017-06-18T10:42:31.579Z,40.40
2017-06-18T10:44:59.864Z,41.30
2017-06-18T10:47:28.185Z,42.10
2017-06-18T10:49:56.477Z,41.50
2017-06-18T10:52:24.764Z,40.70
2017-06-18T10:54:53.076Z,39.80
2017-06-18T10:57:21.364Z,39.50
2017-06-18T10:59:49.672Z,38.70
2017-06-18T11:02:17.961Z,38.70
2017-06-18T11:04:46.271Z,39.10
2017-06-18T11:07:14.564Z,39.40
2017-06-18T11:09:42.881Z,38.60
2017-06-18T11:12:11.176Z,38.10
2017-06-18T11:14:39.469Z,35.80
2017-06-18T11:17:07.781Z,36.20
2017-06-18T11:19:36.073Z,36.60
2017-06-18T11:22:04.376Z,37.30
2017-06-18T11:24:32.669Z,37.40
2017-06-18T11:27:00.981Z,38.00
2017-06-18T11:29:29.410Z,37.20
2017-06-18T11:31:56.951Z,37.20
2017-06-18T11:34:25.237Z,37.90
2017-06-18T11:36:53.521Z,38.20
2017-06-18T11:39:21.832Z,38.50
2017-06-18T11:41:50.124Z,38.20
2017-06-18T11:44:18.441Z,36.90
2017-06-18T11:46:46.733Z,38.40
2017-06-18T11:49:15.044Z,38.50
2017-06-18T11:51:42.656Z,38.50
2017-06-18T11:54:11.000Z,37.50
2017-06-18T11:56:39.305Z,37.50
2017-06-18T11:59:07.588Z,37.00
2017-06-18T12:01:35.896Z,38.10
2017-06-18T12:04:04.185Z,38.00
2017-06-18T12:06:32.510Z,37.10
2017-06-18T12:09:00.796Z,36.40
2017-06-18T12:11:29.102Z,36.50
2017-06-18T12:13:56.629Z,36.50
2017-06-18T12:16:24.940Z,36.80
2017-06-18T12:18:53.233Z,37.10
2017-06-18T12:21:21.524Z,36.60
2017-06-18T12:23:49.835Z,35.80
2017-06-18T12:26:18.126Z,35.40
2017-06-18T12:28:46.436Z,36.10
2017-06-18T12:31:14.737Z,35.30
2017-06-18T12:33:42.300Z,35.30
2017-06-18T12:36:10.608Z,36.70
2017-06-18T12:38:38.936Z,37.00
2017-06-18T12:41:07.220Z,36.80
2017-06-18T12:43:35.513Z,36.80
2017-06-18T12:46:03.824Z,37.00
2017-06-18T12:48:32.108Z,36.00
2017-06-18T12:51:00.421Z,36.60
2017-06-18T12:53:28.735Z,36.40
2017-06-18T12:55:57.048Z,37.20
2017-06-18T12:58:24.730Z,37.20
2017-06-18T13:00:53.052Z,37.80
2017-06-18T13:03:21.355Z,37.00
2017-06-18T13:05:49.640Z,35.30
2017-06-18T13:08:17.957Z,35.70
2017-06-18T13:10:46.248Z,35.40
2017-06-18T13:13:14.568Z,34.80
2017-06-18T13:15:42.879Z,34.70
2017-06-18T13:18:11.245Z,35.60
2017-06-18T13:20:39.548Z,35.40
2017-06-18T13:23:07.873Z,37.10
2017-06-18T13:25:36.165Z,36.00
2017-06-18T13:28:04.456Z,36.30
2017-06-18T13:30:32.764Z,37.10
2017-06-18T13:33:01.053Z,37.20
2017-06-18T13:35:29.376Z,37.20
2017-06-18T13:37:57.669Z,36.20
2017-06-18T13:40:25.209Z,36.20
2017-06-18T13:42:53.492Z,36.50
2017-06-18T13:45:21.804Z,37.40
2017-06-18T13:47:50.097Z,37.10
2017-06-18T13:50:18.386Z,36.70
2017-06-18T13:52:46.697Z,36.50
2017-06-18T13:55:14.989Z,36.20
2017-06-18T13:57:43.309Z,35.60
2017-06-18T14:00:11.621Z,36.10
2017-06-18T14:02:39.942Z,36.60
2017-06-18T14:05:08.230Z,36.70
2017-06-18T14:07:36.540Z,35.70
2017-06-18T14:10:04.828Z,35.30
2017-06-18T14:12:33.117Z,34.30
2017-06-18T14:15:01.437Z,33.80
2017-06-18T14:17:29.748Z,34.10
2017-06-18T14:19:58.070Z,34.70
2017-06-18T14:22:26.365Z,34.90
2017-06-18T14:24:54.674Z,35.00
2017-06-18T14:27:22.968Z,35.20
2017-06-18T14:29:50.528Z,35.20
2017-06-18T14:32:18.820Z,35.60
2017-06-18T14:34:47.109Z,34.00
2017-06-18T14:37:15.440Z,35.70
2017-06-18T14:39:43.799Z,35.90
2017-06-18T14:42:12.123Z,35.60
2017-06-18T14:44:40.417Z,35.80
2017-06-18T14:47:08.744Z,35.80
2017-06-18T14:49:37.036Z,35.80
2017-06-18T14:52:05.340Z,36.60
2017-06-18T14:54:33.629Z,37.00
2017-06-18T14:57:01.153Z,37.00
2017-06-18T14:59:29.466Z,35.90
2017-06-18T15:01:57.758Z,36.10
2017-06-18T15:04:26.077Z,35.60
2017-06-18T15:06:54.369Z,35.00
2017-06-18T15:09:22.701Z,33.60
2017-06-18T15:11:50.992Z,35.00
2017-06-18T15:14:19.320Z,35.80
2017-06-18T15:16:47.613Z,37.00
2017-06-18T15:19:15.905Z,37.00
2017-06-18T15:21:44.218Z,37.30
2017-06-18T15:24:12.512Z,36.90
2017-06-18T15:26:40.845Z,36.40
2017-06-18T15:29:09.149Z,36.10
2017-06-18T15:31:37.457Z,36.50
2017-06-18T15:34:05.740Z,36.50
2017-06-18T15:36:34.053Z,36.70
2017-06-18T15:39:02.340Z,36.00
2017-06-18T15:41:30.625Z,36.00
2017-06-18T15:43:58.949Z,36.00
2017-06-18T15:46:27.232Z,36.60
2017-06-18T15:48:55.536Z,35.90
2017-06-18T15:51:23.820Z,36.10
2017-06-18T15:53:52.129Z,36.50
2017-06-18T15:56:20.412Z,36.30
2017-06-18T15:58:48.707Z,37.10
2017-06-18T16:01:17.017Z,36.20
2017-06-18T16:03:45.308Z,36.10
2017-06-18T16:06:13.628Z,36.20
2017-06-18T16:08:41.922Z,36.20
2017-06-18T16:11:10.232Z,36.60
2017-06-18T16:13:38.530Z,36.60
2017-06-18T16:16:06.854Z,36.80
2017-06-18T16:18:35.136Z,37.70
2017-06-18T16:21:03.420Z,37.50
2017-06-18T16:23:31.738Z,37.70
2017-06-18T16:26:00.051Z,37.10
2017-06-18T16:28:28.365Z,36.90
2017-06-18T16:30:56.657Z,36.90
2017-06-18T16:33:24.965Z,36.60
2017-06-18T16:35:53.249Z,36.80
2017-06-18T16:38:21.560Z,36.30
2017-06-18T16:40:49.848Z,36.90
2017-06-18T16:43:18.140Z,37.00
2017-06-18T16:45:46.457Z,37.30
2017-06-18T16:48:14.745Z,37.40
2017-06-18T16:50:43.074Z,37.50
2017-06-18T16:53:11.384Z,37.30
2017-06-18T16:55:39.704Z,37.90
2017-06-18T16:58:08.000Z,37.80
2017-06-18T17:00:36.289Z,37.50
2017-06-18T17:03:04.596Z,37.30
2017-06-18T17:05:32.885Z,36.60
2017-06-18T17:08:01.189Z,35.10
2017-06-18T17:10:29.484Z,33.70
2017-06-18T17:12:57.804Z,31.90
2017-06-18T17:15:26.093Z,30.50
2017-06-18T17:17:54.381Z,29.40
2017-06-18T17:20:22.692Z,28.80
2017-06-18T17:22:50.985Z,27.80
2017-06-18T17:25:19.296Z,26.70
2017-06-18T17:27:47.580Z,25.70
2017-06-18T17:30:15.880Z,25.10
2017-06-18T17:32:44.184Z,24.60
2017-06-18T17:35:12.513Z,24.30
2017-06-18T17:37:40.812Z,24.20
2017-06-18T17:40:09.097Z,23.80
2017-06-18T17:42:37.409Z,24.30
2017-06-18T17:45:05.698Z,24.20
2017-06-18T17:47:34.023Z,24.10
2017-06-18T17:50:02.308Z,24.20
2017-06-18T17:52:30.618Z,24.20
2017-06-18T17:54:58.912Z,24.10
2017-06-18T17:57:27.224Z,24.30
2017-06-18T17:59:55.526Z,24.50
2017-06-18T18:02:23.821Z,24.60
2017-06-18T18:04:52.125Z,24.90
2017-06-18T18:07:20.413Z,24.70
2017-06-18T18:09:48.725Z,24.70
2017-06-18T18:12:17.011Z,24.30
2017-06-18T18:14:45.317Z,24.10
2017-06-18T18:17:13.629Z,24.40
2017-06-18T18:19:41.928Z,24.60
2017-06-18T18:22:10.237Z,24.80
2017-06-18T18:24:38.525Z,25.00
2017-06-18T18:27:06.834Z,25.10
2017-06-18T18:29:35.125Z,25.10
2017-06-18T18:32:03.432Z,24.90
2017-06-18T18:34:31.729Z,25.10
2017-06-18T18:37:00.040Z,26.60
2017-06-18T18:39:28.336Z,28.70
2017-06-18T18:41:56.825Z,31.00
2017-06-18T18:44:25.189Z,33.10
2017-06-18T18:46:53.477Z,35.00
2017-06-18T18:49:21.788Z,36.60
2017-06-18T18:51:50.093Z,38.20
2017-06-18T18:54:17.637Z,38.10
2017-06-18T18:56:45.947Z,40.40
2017-06-18T18:59:14.297Z,41.30
2017-06-18T19:01:42.628Z,41.80
2017-06-18T19:04:11.063Z,42.50
2017-06-18T19:06:39.384Z,43.10
2017-06-18T19:09:07.696Z,43.70
2017-06-18T19:11:36.009Z,44.40
2017-06-18T19:14:04.392Z,44.90
2017-06-18T19:16:33.025Z,45.60
2017-06-18T19:19:00.560Z,45.60
2017-06-18T19:21:28.968Z,46.40
2017-06-18T19:23:57.252Z,46.90
2017-06-18T19:26:25.544Z,47.30
2017-06-18T19:28:53.857Z,47.90
2017-06-18T19:31:22.179Z,48.40
2017-06-18T19:33:51.442Z,48.90
2017-06-18T19:36:19.829Z,49.40
2017-06-18T19:38:48.142Z,50.00
2017-06-18T19:41:16.453Z,50.20
2017-06-18T19:43:44.993Z,50.60
2017-06-18T19:46:13.286Z,51.70
2017-06-18T19:48:41.600Z,52.00
2017-06-18T19:51:09.925Z,52.00
2017-06-18T19:53:38.237Z,53.00
2017-06-18T19:56:06.544Z,53.70
2017-06-18T19:58:34.837Z,54.10
2017-06-18T20:01:03.149Z,55.50
2017-06-18T20:03:31.432Z,55.30
2017-06-18T20:05:59.756Z,55.80
2017-06-18T20:08:28.050Z,55.70
2017-06-18T20:10:56.353Z,56.60
2017-06-18T20:13:24.665Z,57.20
2017-06-18T20:15:52.952Z,58.20
2017-06-18T20:18:21.260Z,58.50
2017-06-18T20:20:49.552Z,58.50
2017-06-18T20:23:17.862Z,58.60
2017-06-18T20:25:46.172Z,59.10
2017-06-18T20:28:13.741Z,59.10
2017-06-18T20:30:42.054Z,59.40
2017-06-18T20:33:10.348Z,59.60
2017-06-18T20:35:38.664Z,59.90
2017-06-18T20:38:06.954Z,59.90
2017-06-18T20:40:35.265Z,60.40
2017-06-18T20:43:03.566Z,59.70
2017-06-18T20:45:31.876Z,59.50
2017-06-18T20:48:00.180Z,59.80
2017-06-18T20:50:28.518Z,59.90
2017-06-18T20:52:56.813Z,60.00
2017-06-18T20:55:25.129Z,60.30
2017-06-18T20:57:53.508Z,60.60
2017-06-18T21:00:21.864Z,61.10
2017-06-18T21:02:50.237Z,61.90
2017-06-18T21:05:18.549Z,62.20
2017-06-18T21:07:46.899Z,62.50
2017-06-18T21:10:14.491Z,62.40
2017-06-18T21:12:42.913Z,63.00
2017-06-18T21:15:11.483Z,63.60
2017-06-18T21:17:39.861Z,64.40
2017-06-18T21:20:09.144Z,64.40
2017-06-18T21:22:37.439Z,65.20
2017-06-18T21:25:05.768Z,65.20
2017-06-18T21:27:34.064Z,64.90
2017-06-18T21:30:02.385Z,65.20
2017-06-18T21:32:30.690Z,65.60
2017-06-18T21:34:59.017Z,65.80
2017-06-18T21:37:27.314Z,65.90
2017-06-18T21:39:55.609Z,66.00
2017-06-18T21:42:23.928Z,66.20
2017-06-18T21:44:52.221Z,66.70
2017-06-18T21:47:20.539Z,67.20
2017-06-18T21:49:48.840Z,67.50
2017-06-18T21:52:17.155Z,67.70
2017-06-18T21:54:45.449Z,68.00
2017-06-18T21:57:13.778Z,68.50
2017-06-18T21:59:41.302Z,68.30
2017-06-18T22:02:09.592Z,69.10
2017-06-18T22:04:37.897Z,69.30
2017-06-18T22:07:06.189Z,69.80
2017-06-18T22:09:34.500Z,69.90
2017-06-18T22:12:03.614Z,70.00
2017-06-18T22:14:31.932Z,70.10
2017-06-18T22:17:00.936Z,71.30
2017-06-18T22:19:29.261Z,71.80
2017-06-18T22:21:57.554Z,71.20
2017-06-18T22:24:25.841Z,71.20
2017-06-18T22:26:54.152Z,71.10
2017-06-18T22:29:22.439Z,71.20
2017-06-18T22:31:50.752Z,71.60
2017-06-18T22:34:19.036Z,71.90
2017-06-18T22:36:47.346Z,72.10
2017-06-18T22:39:15.660Z,72.50
2017-06-18T22:41:43.989Z,73.30
2017-06-18T22:44:12.294Z,72.70
2017-06-18T22:46:40.601Z,72.80
2017-06-18T22:49:08.909Z,73.00
2017-06-18T22:51:37.204Z,73.20
2017-06-18T22:54:05.516Z,73.60
2017-06-18T22:56:33.807Z,73.60
2017-06-18T22:59:02.116Z,73.90
2017-06-18T23:01:30.404Z,74.10
2017-06-18T23:03:58.720Z,74.40
2017-06-18T23:06:27.013Z,74.70
2017-06-18T23:08:55.301Z,74.80
2017-06-18T23:11:23.625Z,74.50
2017-06-18T23:13:51.925Z,74.50
2017-06-18T23:16:20.228Z,74.70
2017-06-18T23:18:48.524Z,75.00
2017-06-18T23:21:16.828Z,75.50
2017-06-18T23:23:45.126Z,75.60
2017-06-18T23:26:13.441Z,75.70
2017-06-18T23:28:41.737Z,75.80
2017-06-18T23:31:10.026Z,76.00
2017-06-18T23:33:38.337Z,76.10
2017-06-18T23:36:06.628Z,76.30
2017-06-18T23:38:34.933Z,76.20
2017-06-18T23:41:03.223Z,76.10
2017-06-18T23:43:31.530Z,76.20
2017-06-18T23:45:59.821Z,76.50
2017-06-18T23:48:28.145Z,76.50
2017-06-18T23:50:56.445Z,76.60
2017-06-18T23:53:24.729Z,76.60
2017-06-18T23:55:53.040Z,76.60
2017-06-18T23:58:21.321Z,76.60
